createdAt,value
2023-05-23T00:00:50.022Z,0.00
2023-05-23T00:01:50.244Z,0.00
2023-05-23T00:02:50.496Z,0.00
2023-05-23T00:03:50.787Z,0.00
2023-05-23T00:04:50.973Z,0.00
2023-05-23T00:05:51.310Z,0.00
2023-05-23T00:06:51.619Z,0.00
2023-05-23T00:07:51.943Z,0.00
2023-05-23T00:08:52.235Z,0.00
2023-05-23T00:09:52.594Z,0.00
2023-05-23T00:10:52.905Z,0.00
2023-05-23T00:11:53.266Z,0.00
2023-05-23T00:12:53.448Z,0.00
2023-05-23T00:13:53.774Z,0.00
2023-05-23T00:14:54.082Z,0.00
2023-05-23T00:15:54.427Z,0.00
2023-05-23T00:16:54.794Z,0.00
2023-05-23T00:17:55.087Z,0.00
2023-05-23T00:18:55.262Z,0.00
2023-05-23T00:19:55.556Z,0.00
2023-05-23T00:20:55.900Z,0.00
2023-05-23T00:21:56.205Z,0.00
2023-05-23T00:22:56.506Z,0.00
2023-05-23T00:23:56.821Z,0.00
2023-05-23T00:24:57.131Z,0.00
2023-05-23T00:25:57.456Z,0.00
2023-05-23T00:26:57.790Z,0.00
2023-05-23T00:27:58.082Z,0.00
2023-05-23T00:28:58.396Z,0.00
2023-05-23T00:29:58.751Z,0.00
2023-05-23T00:30:59.121Z,0.00
2023-05-23T00:31:59.277Z,0.00
2023-05-23T00:32:59.633Z,0.00
2023-05-23T00:33:59.919Z,0.00
2023-05-23T00:35:00.247Z,0.00
2023-05-23T00:36:00.638Z,0.00
2023-05-23T00:37:00.800Z,0.00
2023-05-23T00:38:01.125Z,0.00
2023-05-23T00:39:01.434Z,0.00
2023-05-23T00:40:01.743Z,0.00
2023-05-23T00:41:02.152Z,0.00
2023-05-23T00:42:02.304Z,0.00
2023-05-23T00:43:02.623Z,0.00
2023-05-23T00:44:02.915Z,0.00
2023-05-23T00:45:03.244Z,0.00
2023-05-23T00:46:03.597Z,0.00
2023-05-23T00:47:03.898Z,0.00
2023-05-23T00:48:04.285Z,0.00
2023-05-23T00:49:04.467Z,0.00
2023-05-23T00:50:04.789Z,0.00
2023-05-23T00:51:05.088Z,0.00
2023-05-23T00:52:05.401Z,0.00
2023-05-23T00:53:05.724Z,0.00
2023-05-23T00:54:06.039Z,0.00
2023-05-23T00:55:06.351Z,0.00
2023-05-23T00:56:06.667Z,0.00
2023-05-23T00:57:06.992Z,0.00
2023-05-23T00:58:07.325Z,0.00
2023-05-23T00:59:07.630Z,0.00
2023-05-23T01:00:07.933Z,0.00
2023-05-23T01:01:08.143Z,0.00
2023-05-23T01:02:08.522Z,0.00
2023-05-23T01:03:08.759Z,0.00
2023-05-23T01:04:09.068Z,0.00
2023-05-23T01:05:09.252Z,0.00
2023-05-23T01:06:09.548Z,0.00
2023-05-23T01:07:09.862Z,0.00
2023-05-23T01:08:10.182Z,0.00
2023-05-23T01:09:10.487Z,0.00
2023-05-23T01:10:10.771Z,0.00
2023-05-23T01:11:11.130Z,0.00
2023-05-23T01:12:11.441Z,0.00
2023-05-23T01:13:11.746Z,0.00
2023-05-23T01:14:12.050Z,0.00
2023-05-23T01:15:12.369Z,0.00
2023-05-23T01:16:12.778Z,0.00
2023-05-23T01:17:12.945Z,0.00
2023-05-23T01:18:13.254Z,0.00
2023-05-23T01:19:13.564Z,0.00
2023-05-23T01:20:13.882Z,0.00
2023-05-23T01:21:14.106Z,0.00
2023-05-23T01:22:14.431Z,0.00
2023-05-23T01:23:14.730Z,0.00
2023-05-23T01:24:15.078Z,0.00
2023-05-23T01:25:15.405Z,0.00
2023-05-23T01:26:15.722Z,0.00
2023-05-23T01:27:16.039Z,0.00
2023-05-23T01:28:16.340Z,0.00
2023-05-23T01:29:16.661Z,0.00
2023-05-23T01:30:16.970Z,0.00
2023-05-23T01:31:17.316Z,0.00
2023-05-23T01:32:17.573Z,0.00
2023-05-23T01:33:17.873Z,0.00
2023-05-23T01:34:18.196Z,0.00
2023-05-23T01:35:18.507Z,0.00
2023-05-23T01:36:18.838Z,0.00
2023-05-23T01:37:19.168Z,0.00
2023-05-23T01:38:19.462Z,0.00
2023-05-23T01:39:19.759Z,0.00
2023-05-23T01:40:20.081Z,0.00
2023-05-23T01:41:20.415Z,0.00
2023-05-23T01:42:20.728Z,0.00
2023-05-23T01:43:20.998Z,0.00
2023-05-23T01:44:21.561Z,0.00
2023-05-23T01:45:21.661Z,0.00
2023-05-23T01:46:22.105Z,0.00
2023-05-23T01:47:22.321Z,0.00
2023-05-23T01:48:22.602Z,0.00
2023-05-23T01:49:22.949Z,0.00
2023-05-23T01:50:23.234Z,0.00
2023-05-23T01:51:23.532Z,0.00
2023-05-23T01:52:23.904Z,0.00
2023-05-23T01:53:24.189Z,0.00
2023-05-23T01:54:24.520Z,0.00
2023-05-23T01:55:24.828Z,0.00
2023-05-23T01:56:25.159Z,0.00
2023-05-23T01:57:25.432Z,0.00
2023-05-23T01:58:25.682Z,0.00
2023-05-23T01:59:26.024Z,0.00
2023-05-23T02:00:26.325Z,0.00
2023-05-23T02:01:26.665Z,0.00
2023-05-23T02:02:27.004Z,0.00
2023-05-23T02:03:27.323Z,0.00
2023-05-23T02:04:27.522Z,0.00
2023-05-23T02:05:27.829Z,0.00
2023-05-23T02:06:28.140Z,0.00
2023-05-23T02:07:28.472Z,0.00
2023-05-23T02:08:28.783Z,0.00
2023-05-23T02:09:29.083Z,0.00
2023-05-23T02:10:29.397Z,0.00
2023-05-23T02:11:29.717Z,0.00
2023-05-23T02:12:30.042Z,0.00
2023-05-23T02:13:30.334Z,0.00
2023-05-23T02:14:30.645Z,0.00
2023-05-23T02:15:30.939Z,0.00
2023-05-23T02:16:31.278Z,0.00
2023-05-23T02:17:31.625Z,0.00
2023-05-23T02:18:31.823Z,0.00
2023-05-23T02:19:32.130Z,0.00
2023-05-23T02:20:32.396Z,0.00
2023-05-23T02:21:35.016Z,0.00
2023-05-23T02:22:33.068Z,0.00
2023-05-23T02:23:33.393Z,0.00
2023-05-23T02:24:33.691Z,0.00
2023-05-23T02:25:34.024Z,0.00
2023-05-23T02:26:34.359Z,0.00
2023-05-23T02:27:34.671Z,0.00
2023-05-23T02:28:35.001Z,0.00
2023-05-23T02:29:35.343Z,0.00
2023-05-23T02:30:35.623Z,0.00
2023-05-23T02:31:36.003Z,0.00
2023-05-23T02:32:36.246Z,0.00
2023-05-23T02:33:36.431Z,0.00
2023-05-23T02:34:36.757Z,0.00
2023-05-23T02:35:37.097Z,0.00
2023-05-23T02:36:37.427Z,0.00
2023-05-23T02:37:37.747Z,0.00
2023-05-23T02:38:38.082Z,0.00
2023-05-23T02:39:38.395Z,0.00
2023-05-23T02:40:38.746Z,0.00
2023-05-23T02:41:39.085Z,0.00
2023-05-23T02:42:39.400Z,0.00
2023-05-23T02:43:39.763Z,0.00
2023-05-23T02:44:40.059Z,0.00
2023-05-23T02:45:40.448Z,0.00
2023-05-23T02:46:40.609Z,0.00
2023-05-23T02:47:40.835Z,0.00
2023-05-23T02:48:41.168Z,0.00
2023-05-23T02:49:41.485Z,0.00
2023-05-23T02:50:41.808Z,0.00
2023-05-23T02:51:42.135Z,0.00
2023-05-23T02:52:42.433Z,0.00
2023-05-23T02:53:42.770Z,0.00
2023-05-23T02:54:43.114Z,0.00
2023-05-23T02:55:43.481Z,0.00
2023-05-23T02:56:43.650Z,0.00
2023-05-23T02:57:44.000Z,0.00
2023-05-23T02:58:44.335Z,0.00
2023-05-23T02:59:44.677Z,5.62
2023-05-23T03:00:44.888Z,5.62
2023-05-23T03:01:45.268Z,5.62
2023-05-23T03:02:45.642Z,5.62
2023-05-23T03:03:46.010Z,5.62
2023-05-23T03:04:46.191Z,5.62
2023-05-23T03:05:46.422Z,5.62
2023-05-23T03:06:46.706Z,5.62
2023-05-23T03:07:46.974Z,5.62
2023-05-23T03:08:47.324Z,5.62
2023-05-23T03:09:47.610Z,5.62
2023-05-23T03:10:47.865Z,5.62
2023-05-23T03:11:48.132Z,5.62
2023-05-23T03:12:48.462Z,5.62
2023-05-23T03:13:48.694Z,5.62
2023-05-23T03:14:48.966Z,5.62
2023-05-23T03:15:49.257Z,5.62
2023-05-23T03:16:49.556Z,5.62
2023-05-23T03:17:49.892Z,5.62
2023-05-23T03:18:50.146Z,5.62
2023-05-23T03:19:50.400Z,5.62
2023-05-23T03:20:50.713Z,5.62
2023-05-23T03:21:50.969Z,5.62
2023-05-23T03:22:51.260Z,5.62
2023-05-23T03:23:51.544Z,5.62
2023-05-23T03:24:51.846Z,5.62
2023-05-23T03:25:52.134Z,5.62
2023-05-23T03:26:52.417Z,11.25
2023-05-23T03:27:52.702Z,11.25
2023-05-23T03:28:52.988Z,11.25
2023-05-23T03:29:53.242Z,11.25
2023-05-23T03:30:53.528Z,11.25
2023-05-23T03:31:53.860Z,16.88
2023-05-23T03:32:54.171Z,16.88
2023-05-23T03:33:54.425Z,16.88
2023-05-23T03:34:54.714Z,22.50
2023-05-23T03:35:54.984Z,22.50
2023-05-23T03:36:55.291Z,28.12
2023-05-23T03:37:55.554Z,28.12
2023-05-23T03:38:55.833Z,28.12
2023-05-23T03:39:56.139Z,33.75
2023-05-23T03:40:56.411Z,33.75
2023-05-23T03:41:56.695Z,33.75
2023-05-23T03:42:57.018Z,33.75
2023-05-23T03:43:57.330Z,39.38
2023-05-23T03:44:57.583Z,39.38
2023-05-23T03:45:57.905Z,39.38
2023-05-23T03:46:58.199Z,39.38
2023-05-23T03:47:58.534Z,39.38
2023-05-23T03:48:58.756Z,39.38
2023-05-23T03:49:59.049Z,33.75
2023-05-23T03:50:59.336Z,33.75
2023-05-23T03:51:59.658Z,33.75
2023-05-23T03:52:59.961Z,33.75
2023-05-23T03:54:00.202Z,33.75
2023-05-23T03:55:00.526Z,28.12
2023-05-23T03:56:00.791Z,28.12
2023-05-23T03:57:01.051Z,28.12
2023-05-23T03:58:01.318Z,33.75
2023-05-23T03:59:01.630Z,33.75
2023-05-23T04:00:01.927Z,33.75
2023-05-23T04:01:02.355Z,39.38
2023-05-23T04:02:02.512Z,39.38
2023-05-23T04:03:02.846Z,45.00
2023-05-23T04:04:03.336Z,50.62
2023-05-23T04:05:03.347Z,56.25
2023-05-23T04:06:03.631Z,56.25
2023-05-23T04:07:03.916Z,56.25
2023-05-23T04:08:04.231Z,56.25
2023-05-23T04:09:04.500Z,56.25
2023-05-23T04:10:04.840Z,50.62
2023-05-23T04:11:05.120Z,50.62
2023-05-23T04:12:05.413Z,45.00
2023-05-23T04:13:05.681Z,45.00
2023-05-23T04:14:06.011Z,45.00
2023-05-23T04:15:06.299Z,39.38
2023-05-23T04:16:06.580Z,45.00
2023-05-23T04:17:06.868Z,45.00
2023-05-23T04:18:07.202Z,50.62
2023-05-23T04:19:07.515Z,50.62
2023-05-23T04:20:07.764Z,56.25
2023-05-23T04:21:08.083Z,61.88
2023-05-23T04:22:08.358Z,67.50
2023-05-23T04:23:08.624Z,67.50
2023-05-23T04:24:08.846Z,73.12
2023-05-23T04:25:09.082Z,73.12
2023-05-23T04:26:09.302Z,73.12
2023-05-23T04:27:09.551Z,67.50
2023-05-23T04:28:09.784Z,61.88
2023-05-23T04:29:10.023Z,56.25
2023-05-23T04:30:10.242Z,56.25
2023-05-23T04:31:10.516Z,50.62
2023-05-23T04:32:10.862Z,45.00
2023-05-23T04:33:11.144Z,45.00
2023-05-23T04:34:11.333Z,45.00
2023-05-23T04:35:14.181Z,45.00
2023-05-23T04:36:11.843Z,45.00
2023-05-23T04:37:12.082Z,45.00
2023-05-23T04:38:12.331Z,50.62
2023-05-23T04:39:12.564Z,50.62
2023-05-23T04:40:12.800Z,50.62
2023-05-23T04:41:13.079Z,56.25
2023-05-23T04:42:15.065Z,56.25
2023-05-23T04:43:13.590Z,56.25
2023-05-23T04:44:13.827Z,56.25
2023-05-23T04:45:14.075Z,56.25
2023-05-23T04:46:14.331Z,56.25
2023-05-23T04:47:14.580Z,61.88
2023-05-23T04:48:14.865Z,61.88
2023-05-23T04:49:15.134Z,67.50
2023-05-23T04:50:15.350Z,67.50
2023-05-23T04:51:15.600Z,73.12
2023-05-23T04:52:15.843Z,73.12
2023-05-23T04:53:16.064Z,73.12
2023-05-23T04:54:16.380Z,78.75
2023-05-23T04:55:16.669Z,73.12
2023-05-23T04:56:16.927Z,78.75
2023-05-23T04:57:17.178Z,78.75
2023-05-23T04:58:17.431Z,84.38
2023-05-23T04:59:17.657Z,90.00
2023-05-23T05:00:25.411Z,95.62
2023-05-23T05:01:18.319Z,106.88
2023-05-23T05:02:18.560Z,112.50
2023-05-23T05:03:18.832Z,118.12
2023-05-23T05:04:19.099Z,123.75
2023-05-23T05:05:19.308Z,123.75
2023-05-23T05:06:19.557Z,123.75
2023-05-23T05:07:19.803Z,123.75
2023-05-23T05:08:20.081Z,123.75
2023-05-23T05:09:20.281Z,112.50
2023-05-23T05:10:20.610Z,106.88
2023-05-23T05:11:20.835Z,101.25
2023-05-23T05:12:21.088Z,95.62
2023-05-23T05:13:21.323Z,90.00
2023-05-23T05:14:21.546Z,90.00
2023-05-23T05:15:21.800Z,84.38
2023-05-23T05:16:22.178Z,78.75
2023-05-23T05:17:22.284Z,78.75
2023-05-23T05:18:22.580Z,78.75
2023-05-23T05:19:22.959Z,78.75
2023-05-23T05:20:23.225Z,78.75
2023-05-23T05:21:23.458Z,78.75
2023-05-23T05:22:23.728Z,84.38
2023-05-23T05:23:24.049Z,84.38
2023-05-23T05:24:24.310Z,90.00
2023-05-23T05:25:24.620Z,90.00
2023-05-23T05:26:24.841Z,90.00
2023-05-23T05:27:27.142Z,90.00
2023-05-23T05:28:25.465Z,84.38
2023-05-23T05:29:25.776Z,84.38
2023-05-23T05:30:26.036Z,90.00
2023-05-23T05:31:26.351Z,95.62
2023-05-23T05:32:26.622Z,95.62
2023-05-23T05:33:26.905Z,101.25
2023-05-23T05:34:27.271Z,106.88
2023-05-23T05:35:27.646Z,112.50
2023-05-23T05:36:27.754Z,112.50
2023-05-23T05:37:27.996Z,118.12
2023-05-23T05:38:28.234Z,118.12
2023-05-23T05:39:28.451Z,118.12
2023-05-23T05:40:28.822Z,118.12
2023-05-23T05:41:29.079Z,123.75
2023-05-23T05:42:29.317Z,123.75
2023-05-23T05:43:29.579Z,123.75
2023-05-23T05:44:29.802Z,123.75
2023-05-23T05:45:30.061Z,123.75
2023-05-23T05:46:30.333Z,123.75
2023-05-23T05:47:30.610Z,123.75
2023-05-23T05:48:30.889Z,123.75
2023-05-23T05:49:31.150Z,129.38
2023-05-23T05:50:31.429Z,129.38
2023-05-23T05:51:31.683Z,129.38
2023-05-23T05:52:31.949Z,135.00
2023-05-23T05:53:32.163Z,135.00
2023-05-23T05:54:32.504Z,135.00
2023-05-23T05:55:32.774Z,140.62
2023-05-23T05:56:33.027Z,140.62
2023-05-23T05:57:37.750Z,140.62
2023-05-23T05:58:33.572Z,140.62
2023-05-23T05:59:33.804Z,140.62
2023-05-23T06:00:34.042Z,135.00
2023-05-23T06:01:34.264Z,135.00
2023-05-23T06:02:34.771Z,129.38
2023-05-23T06:03:35.029Z,129.38
2023-05-23T06:04:35.177Z,123.75
2023-05-23T06:05:35.423Z,123.75
2023-05-23T06:06:35.672Z,123.75
2023-05-23T06:07:35.921Z,123.75
2023-05-23T06:08:36.176Z,123.75
2023-05-23T06:09:36.430Z,123.75
2023-05-23T06:10:36.675Z,123.75
2023-05-23T06:11:36.915Z,118.12
2023-05-23T06:12:37.248Z,106.88
2023-05-23T06:13:37.526Z,95.62
2023-05-23T06:14:37.706Z,90.00
2023-05-23T06:15:37.957Z,78.75
2023-05-23T06:16:38.190Z,78.75
2023-05-23T06:17:38.479Z,73.12
2023-05-23T06:18:38.689Z,73.12
2023-05-23T06:19:39.045Z,73.12
2023-05-23T06:20:39.348Z,78.75
2023-05-23T06:21:39.680Z,84.38
2023-05-23T06:22:39.738Z,90.00
2023-05-23T06:23:40.109Z,95.62
2023-05-23T06:24:40.378Z,101.25
2023-05-23T06:25:40.656Z,101.25
2023-05-23T06:26:40.911Z,101.25
2023-05-23T06:27:41.145Z,106.88
2023-05-23T06:28:41.390Z,112.50
2023-05-23T06:29:42.084Z,118.12
2023-05-23T06:30:42.428Z,129.38
2023-05-23T06:31:42.380Z,140.62
2023-05-23T06:32:42.667Z,146.25
2023-05-23T06:33:42.892Z,146.25
2023-05-23T06:34:43.142Z,146.25
2023-05-23T06:35:43.913Z,146.25
2023-05-23T06:36:43.675Z,146.25
2023-05-23T06:37:43.901Z,151.88
2023-05-23T06:38:44.158Z,146.25
2023-05-23T06:39:44.438Z,140.62
2023-05-23T06:40:44.660Z,140.62
2023-05-23T06:41:44.905Z,140.62
2023-05-23T06:42:45.138Z,140.62
2023-05-23T06:43:45.384Z,146.25
2023-05-23T06:44:45.645Z,157.50
2023-05-23T06:45:45.907Z,168.75
2023-05-23T06:46:46.169Z,180.00
2023-05-23T06:47:46.441Z,191.25
2023-05-23T06:48:46.732Z,191.25
2023-05-23T06:49:46.960Z,196.88
2023-05-23T06:50:47.195Z,191.25
2023-05-23T06:51:47.567Z,196.88
2023-05-23T06:52:47.655Z,202.50
2023-05-23T06:53:47.907Z,208.12
2023-05-23T06:54:48.158Z,213.75
2023-05-23T06:55:48.409Z,213.75
2023-05-23T06:56:48.636Z,219.38
2023-05-23T06:57:48.887Z,230.62
2023-05-23T06:58:49.138Z,236.25
2023-05-23T06:59:49.397Z,247.50
2023-05-23T07:00:49.671Z,247.50
2023-05-23T07:01:49.873Z,258.75
2023-05-23T07:02:50.145Z,270.00
2023-05-23T07:03:50.382Z,275.62
2023-05-23T07:04:50.622Z,275.62
2023-05-23T07:05:50.952Z,270.00
2023-05-23T07:06:51.188Z,275.62
2023-05-23T07:07:51.455Z,286.88
2023-05-23T07:08:51.704Z,298.12
2023-05-23T07:09:51.914Z,303.75
2023-05-23T07:10:52.155Z,315.00
2023-05-23T07:11:52.410Z,315.00
2023-05-23T07:12:52.651Z,309.38
2023-05-23T07:13:52.877Z,298.12
2023-05-23T07:14:53.131Z,292.50
2023-05-23T07:15:53.414Z,303.75
2023-05-23T07:16:53.694Z,315.00
2023-05-23T07:17:53.989Z,326.25
2023-05-23T07:18:54.228Z,331.88
2023-05-23T07:19:54.470Z,343.12
2023-05-23T07:20:54.809Z,348.75
2023-05-23T07:21:54.974Z,348.75
2023-05-23T07:22:55.225Z,348.75
2023-05-23T07:23:55.487Z,337.50
2023-05-23T07:24:55.716Z,326.25
2023-05-23T07:26:02.670Z,315.00
2023-05-23T07:26:57.425Z,303.75
2023-05-23T07:27:56.709Z,281.25
2023-05-23T07:28:56.955Z,275.62
2023-05-23T07:29:57.256Z,275.62
2023-05-23T07:30:57.554Z,281.25
2023-05-23T07:31:57.721Z,281.25
2023-05-23T07:32:57.972Z,292.50
2023-05-23T07:33:59.860Z,309.38
2023-05-23T07:34:58.527Z,337.50
2023-05-23T07:35:58.824Z,354.38
2023-05-23T07:36:59.064Z,371.25
2023-05-23T07:37:59.334Z,371.25
2023-05-23T07:38:59.572Z,365.62
2023-05-23T07:39:59.815Z,354.38
2023-05-23T07:41:10.905Z,348.75
2023-05-23T07:42:01.393Z,348.75
2023-05-23T07:43:00.921Z,348.75
2023-05-23T07:44:00.963Z,348.75
2023-05-23T07:45:01.193Z,343.12
2023-05-23T07:46:01.540Z,331.88
2023-05-23T07:47:01.767Z,326.25
2023-05-23T07:48:02.121Z,337.50
2023-05-23T07:49:02.947Z,360.00
2023-05-23T07:50:02.537Z,382.50
2023-05-23T07:51:02.768Z,393.75
2023-05-23T07:52:03.035Z,388.12
2023-05-23T07:53:03.506Z,376.88
2023-05-23T07:54:03.697Z,371.25
2023-05-23T07:55:03.772Z,354.38
2023-05-23T07:56:04.022Z,337.50
2023-05-23T07:57:04.280Z,320.62
2023-05-23T07:58:04.546Z,309.38
2023-05-23T07:59:04.785Z,303.75
2023-05-23T08:00:05.018Z,303.75
2023-05-23T08:01:05.786Z,315.00
2023-05-23T08:02:05.616Z,343.12
2023-05-23T08:03:05.884Z,371.25
2023-05-23T08:04:06.137Z,388.12
2023-05-23T08:05:06.356Z,388.12
2023-05-23T08:06:06.612Z,371.25
2023-05-23T08:07:06.824Z,365.62
2023-05-23T08:08:07.078Z,360.00
2023-05-23T08:09:07.362Z,371.25
2023-05-23T08:10:07.607Z,382.50
2023-05-23T08:11:07.848Z,388.12
2023-05-23T08:12:08.097Z,382.50
2023-05-23T08:13:08.369Z,376.88
2023-05-23T08:14:08.606Z,388.12
2023-05-23T08:15:08.844Z,393.75
2023-05-23T08:16:09.168Z,410.62
2023-05-23T08:17:09.468Z,438.75
2023-05-23T08:18:09.689Z,455.62
2023-05-23T08:19:09.849Z,438.75
2023-05-23T08:20:10.056Z,433.12
2023-05-23T08:21:10.326Z,421.88
2023-05-23T08:22:10.566Z,405.00
2023-05-23T08:23:10.904Z,388.12
2023-05-23T08:24:12.795Z,365.62
2023-05-23T08:25:11.364Z,348.75
2023-05-23T08:26:11.627Z,337.50
2023-05-23T08:27:11.862Z,326.25
2023-05-23T08:28:12.078Z,320.62
2023-05-23T08:29:12.317Z,326.25
2023-05-23T08:30:12.563Z,337.50
2023-05-23T08:31:12.794Z,348.75
2023-05-23T08:32:13.263Z,360.00
2023-05-23T08:33:13.459Z,371.25
2023-05-23T08:34:13.718Z,382.50
2023-05-23T08:35:13.953Z,405.00
2023-05-23T08:36:14.313Z,438.75
2023-05-23T08:37:14.566Z,466.88
2023-05-23T08:38:14.806Z,461.25
2023-05-23T08:39:15.058Z,455.62
2023-05-23T08:40:15.306Z,450.00
2023-05-23T08:41:15.575Z,455.62
2023-05-23T08:42:15.880Z,455.62
2023-05-23T08:43:16.068Z,461.25
2023-05-23T08:44:16.314Z,472.50
2023-05-23T08:45:16.581Z,478.12
2023-05-23T08:46:16.876Z,483.75
2023-05-23T08:47:17.121Z,489.38
2023-05-23T08:48:17.398Z,483.75
2023-05-23T08:49:17.672Z,483.75
2023-05-23T08:50:21.051Z,483.75
2023-05-23T08:51:18.224Z,483.75
2023-05-23T08:52:18.498Z,472.50
2023-05-23T08:53:18.725Z,472.50
2023-05-23T08:54:18.974Z,472.50
2023-05-23T08:55:19.233Z,472.50
2023-05-23T08:56:19.481Z,478.12
2023-05-23T08:57:19.717Z,500.62
2023-05-23T08:58:19.956Z,495.00
2023-05-23T08:59:20.210Z,483.75
2023-05-23T09:00:20.464Z,466.88
2023-05-23T09:01:20.751Z,466.88
2023-05-23T09:02:21.032Z,455.62
2023-05-23T09:03:21.265Z,461.25
2023-05-23T09:04:21.552Z,461.25
2023-05-23T09:05:21.864Z,461.25
2023-05-23T09:06:22.088Z,478.12
2023-05-23T09:07:22.308Z,489.38
2023-05-23T09:08:22.600Z,506.25
2023-05-23T09:09:22.854Z,517.50
2023-05-23T09:10:23.100Z,506.25
2023-05-23T09:11:23.322Z,483.75
2023-05-23T09:12:23.610Z,472.50
2023-05-23T09:13:23.910Z,472.50
2023-05-23T09:14:24.137Z,489.38
2023-05-23T09:15:24.355Z,506.25
2023-05-23T09:16:24.692Z,511.88
2023-05-23T09:17:24.930Z,528.75
2023-05-23T09:18:25.169Z,528.75
2023-05-23T09:19:25.457Z,523.12
2023-05-23T09:20:25.668Z,495.00
2023-05-23T09:21:25.925Z,483.75
2023-05-23T09:22:26.206Z,489.38
2023-05-23T09:23:26.414Z,495.00
2023-05-23T09:24:26.701Z,500.62
2023-05-23T09:25:26.952Z,500.62
2023-05-23T09:26:27.187Z,511.88
2023-05-23T09:27:27.445Z,528.75
2023-05-23T09:28:27.663Z,562.50
2023-05-23T09:29:27.912Z,585.00
2023-05-23T09:30:28.151Z,573.75
2023-05-23T09:31:28.543Z,590.62
2023-05-23T09:32:28.703Z,596.25
2023-05-23T09:33:28.890Z,596.25
2023-05-23T09:34:29.170Z,590.62
2023-05-23T09:35:29.413Z,585.00
2023-05-23T09:36:29.681Z,590.62
2023-05-23T09:37:29.933Z,590.62
2023-05-23T09:38:30.188Z,596.25
2023-05-23T09:39:30.470Z,596.25
2023-05-23T09:40:30.743Z,590.62
2023-05-23T09:41:30.982Z,573.75
2023-05-23T09:42:31.246Z,573.75
2023-05-23T09:43:31.499Z,568.12
2023-05-23T09:44:31.748Z,562.50
2023-05-23T09:45:32.002Z,562.50
2023-05-23T09:46:32.280Z,551.25
2023-05-23T09:47:32.554Z,540.00
2023-05-23T09:48:32.774Z,534.38
2023-05-23T09:49:33.019Z,540.00
2023-05-23T09:50:33.365Z,545.62
2023-05-23T09:51:33.483Z,534.38
2023-05-23T09:52:33.730Z,540.00
2023-05-23T09:53:33.961Z,534.38
2023-05-23T09:54:34.231Z,534.38
2023-05-23T09:55:34.500Z,540.00
2023-05-23T09:56:34.751Z,545.62
2023-05-23T09:57:34.994Z,545.62
2023-05-23T09:58:35.285Z,545.62
2023-05-23T09:59:35.533Z,540.00
2023-05-23T10:00:35.770Z,562.50
2023-05-23T10:01:36.077Z,551.25
2023-05-23T10:02:36.345Z,568.12
2023-05-23T10:03:36.566Z,573.75
2023-05-23T10:04:36.857Z,579.38
2023-05-23T10:05:37.117Z,579.38
2023-05-23T10:06:37.338Z,573.75
2023-05-23T10:07:37.568Z,551.25
2023-05-23T10:08:37.818Z,556.88
2023-05-23T10:09:38.063Z,551.25
2023-05-23T10:10:38.325Z,545.62
2023-05-23T10:11:38.570Z,540.00
2023-05-23T10:12:38.817Z,528.75
2023-05-23T10:13:39.062Z,528.75
2023-05-23T10:14:39.323Z,528.75
2023-05-23T10:15:39.566Z,523.12
2023-05-23T10:16:39.801Z,517.50
2023-05-23T10:17:40.087Z,511.88
2023-05-23T10:18:40.309Z,506.25
2023-05-23T10:19:40.640Z,500.62
2023-05-23T10:20:41.148Z,489.38
2023-05-23T10:21:41.150Z,495.00
2023-05-23T10:22:41.467Z,461.25
2023-05-23T10:23:41.620Z,461.25
2023-05-23T10:24:41.883Z,472.50
2023-05-23T10:25:42.131Z,495.00
2023-05-23T10:26:42.371Z,500.62
2023-05-23T10:27:42.651Z,511.88
2023-05-23T10:28:42.890Z,511.88
2023-05-23T10:29:43.118Z,511.88
2023-05-23T10:30:43.584Z,511.88
2023-05-23T10:31:43.677Z,500.62
2023-05-23T10:32:43.992Z,500.62
2023-05-23T10:33:44.188Z,511.88
2023-05-23T10:34:44.429Z,506.25
2023-05-23T10:35:44.720Z,489.38
2023-05-23T10:36:44.979Z,483.75
2023-05-23T10:37:45.218Z,478.12
2023-05-23T10:38:45.471Z,461.25
2023-05-23T10:39:46.517Z,444.38
2023-05-23T10:40:46.053Z,438.75
2023-05-23T10:41:46.349Z,450.00
2023-05-23T10:42:46.604Z,438.75
2023-05-23T10:43:46.845Z,433.12
2023-05-23T10:44:47.054Z,399.38
2023-05-23T10:45:47.340Z,376.88
2023-05-23T10:46:47.636Z,360.00
2023-05-23T10:47:47.918Z,360.00
2023-05-23T10:48:48.113Z,337.50
2023-05-23T10:49:48.369Z,326.25
2023-05-23T10:50:48.623Z,315.00
2023-05-23T10:51:50.894Z,303.75
2023-05-23T10:52:49.143Z,298.12
2023-05-23T10:53:49.334Z,303.75
2023-05-23T10:54:49.603Z,303.75
2023-05-23T10:55:49.865Z,320.62
2023-05-23T10:56:50.085Z,326.25
2023-05-23T10:57:51.085Z,337.50
2023-05-23T10:58:50.647Z,365.62
2023-05-23T10:59:50.903Z,382.50
2023-05-23T11:00:51.169Z,405.00
2023-05-23T11:01:51.453Z,427.50
2023-05-23T11:02:51.717Z,461.25
2023-05-23T11:03:54.118Z,489.38
2023-05-23T11:04:52.300Z,506.25
2023-05-23T11:05:52.535Z,506.25
2023-05-23T11:06:52.800Z,506.25
2023-05-23T11:07:53.046Z,500.62
2023-05-23T11:08:53.283Z,495.00
2023-05-23T11:09:53.545Z,495.00
2023-05-23T11:10:53.794Z,483.75
2023-05-23T11:11:54.081Z,478.12
2023-05-23T11:12:54.313Z,472.50
2023-05-23T11:13:54.612Z,461.25
2023-05-23T11:14:55.752Z,455.62
2023-05-23T11:15:55.158Z,455.62
2023-05-23T11:16:55.395Z,450.00
2023-05-23T11:17:55.673Z,450.00
2023-05-23T11:18:55.966Z,444.38
2023-05-23T11:19:56.225Z,444.38
2023-05-23T11:20:56.462Z,450.00
2023-05-23T11:21:56.719Z,461.25
2023-05-23T11:22:56.987Z,466.88
2023-05-23T11:23:57.233Z,466.88
2023-05-23T11:24:57.497Z,466.88
2023-05-23T11:25:57.728Z,461.25
2023-05-23T11:26:57.974Z,461.25
2023-05-23T11:27:58.219Z,461.25
2023-05-23T11:28:58.478Z,461.25
2023-05-23T11:29:58.721Z,461.25
2023-05-23T11:30:59.002Z,444.38
2023-05-23T11:31:59.291Z,433.12
2023-05-23T11:32:59.561Z,427.50
2023-05-23T11:33:59.780Z,416.25
2023-05-23T11:35:00.021Z,405.00
2023-05-23T11:36:00.284Z,393.75
2023-05-23T11:37:00.569Z,376.88
2023-05-23T11:38:00.794Z,365.62
2023-05-23T11:39:01.039Z,337.50
2023-05-23T11:40:01.245Z,315.00
2023-05-23T11:41:01.613Z,303.75
2023-05-23T11:42:01.846Z,292.50
2023-05-23T11:43:02.102Z,298.12
2023-05-23T11:44:02.311Z,320.62
2023-05-23T11:45:02.540Z,343.12
2023-05-23T11:46:02.914Z,354.38
2023-05-23T11:47:03.157Z,365.62
2023-05-23T11:48:03.436Z,376.88
2023-05-23T11:49:03.749Z,376.88
2023-05-23T11:50:04.013Z,382.50
2023-05-23T11:51:04.245Z,382.50
2023-05-23T11:52:04.535Z,382.50
2023-05-23T11:53:04.786Z,376.88
2023-05-23T11:54:05.029Z,371.25
2023-05-23T11:55:05.252Z,365.62
2023-05-23T11:56:05.520Z,360.00
2023-05-23T11:57:05.766Z,360.00
2023-05-23T11:58:05.999Z,365.62
2023-05-23T11:59:06.244Z,365.62
2023-05-23T12:00:06.461Z,365.62
2023-05-23T12:01:06.704Z,365.62
2023-05-23T12:02:06.968Z,371.25
2023-05-23T12:03:07.307Z,382.50
2023-05-23T12:04:07.484Z,388.12
2023-05-23T12:05:07.813Z,399.38
2023-05-23T12:06:08.089Z,399.38
2023-05-23T12:07:10.326Z,405.00
2023-05-23T12:08:09.562Z,405.00
2023-05-23T12:09:09.832Z,410.62
2023-05-23T12:10:12.654Z,416.25
2023-05-23T12:11:09.402Z,416.25
2023-05-23T12:12:11.438Z,416.25
2023-05-23T12:13:11.990Z,410.62
2023-05-23T12:14:12.935Z,405.00
2023-05-23T12:15:11.635Z,405.00
2023-05-23T12:16:10.914Z,399.38
2023-05-23T12:17:11.133Z,399.38
2023-05-23T12:18:11.380Z,399.38
2023-05-23T12:19:11.639Z,393.75
2023-05-23T12:20:11.926Z,393.75
2023-05-23T12:21:12.174Z,393.75
2023-05-23T12:22:12.530Z,393.75
2023-05-23T12:23:12.777Z,399.38
2023-05-23T12:24:13.048Z,405.00
2023-05-23T12:25:13.369Z,410.62
2023-05-23T12:26:13.732Z,416.25
2023-05-23T12:27:13.836Z,416.25
2023-05-23T12:28:14.081Z,405.00
2023-05-23T12:29:14.491Z,393.75
2023-05-23T12:30:16.725Z,388.12
2023-05-23T12:31:15.971Z,382.50
2023-05-23T12:32:15.085Z,376.88
2023-05-23T12:33:15.407Z,376.88
2023-05-23T12:34:15.937Z,371.25
2023-05-23T12:35:15.883Z,365.62
2023-05-23T12:36:16.157Z,365.62
2023-05-23T12:37:20.265Z,365.62
2023-05-23T12:38:16.708Z,365.62
2023-05-23T12:39:16.960Z,365.62
2023-05-23T12:40:17.190Z,371.25
2023-05-23T12:41:17.458Z,371.25
2023-05-23T12:42:17.701Z,371.25
2023-05-23T12:43:17.961Z,371.25
2023-05-23T12:44:18.205Z,371.25
2023-05-23T12:45:18.456Z,371.25
2023-05-23T12:46:18.717Z,371.25
2023-05-23T12:47:19.059Z,371.25
2023-05-23T12:48:19.369Z,371.25
2023-05-23T12:49:19.611Z,360.00